Latest Weather Observations for Clare

IDS60801

Issued at 5:32 pm CDT Tuesday 3 March 2015 (issued every 30 minutes, with the page automatically refreshed every 10 minutes)

About weather observations | Map of weather stations | Latest weather observations for SA | Other Formats
Station Details ID: 021131 Name: CLARE HIGH SCHOOL Lat: -33.82 Lon: 138.59 Height: 395.0 m
Data from the previous 72 hours. | See also: Recent months at Clare
Date/Time
CDT
Temp
°C
App
Temp
°C
Dew
Point
Rel
Hum
%
Delta-T
°C
Wind Press
QNH
hPa
Press
MSL
hPa
Rain
since 9 am
mm
Dir
 
Spd
km/h
Gust
km/h
Spd
kts
Gust
kts
03/05:30pm 24.3 20.9 10.6 42 7.7 SSW 19 32 10 17 1016.2 - 0.0
03/05:00pm 24.9 21.3 10.0 39 8.4 SW 19 30 10 16 1016.1 - 0.0
03/04:30pm 26.1 22.8 9.4 35 9.3 SW 17 28 9 15 1016.2 - 0.0
03/04:00pm 27.6 24.4 8.5 30 10.6 WSW 15 28 8 15 1016.2 - 0.0
03/03:30pm 27.4 23.9 7.3 28 10.9 S 15 26 8 14 1016.2 - 0.0
03/03:00pm 26.4 23.1 6.4 28 10.6 WNW 13 22 7 12 1016.5 1015.2 0.0
03/02:30pm 27.1 23.8 6.5 27 11.0 W 13 20 7 11 1016.8 - 0.0
03/02:00pm 26.3 23.4 6.3 28 10.6 SW 11 19 6 10 1017.2 - 0.0
03/01:30pm 26.5 23.8 7.5 30 10.3 SSW 11 19 6 10 1017.4 - 0.0
03/01:00pm 26.1 23.8 5.7 27 10.7 NNE 7 15 4 8 1017.5 - 0.0
03/12:30pm 25.3 23.2 6.5 30 9.9 ENE 7 11 4 6 1018.0 - 0.0
03/12:00pm 23.9 21.7 6.2 32 9.2 NNE 7 11 4 6 1018.5 1017.2 0.0
03/11:30am 23.7 21.7 6.9 34 8.9 E 7 15 4 8 1018.8 - 0.0
03/11:00am 22.2 20.2 7.2 38 7.9 E 7 13 4 7 1019.0 - 0.0
03/10:30am 21.5 19.6 7.7 41 7.3 E 7 11 4 6 1019.0 - 0.0
03/10:00am 21.1 19.4 8.4 44 6.8 ESE 7 13 4 7 1018.9 - 0.0
03/09:30am 20.4 18.9 8.4 46 6.4 ESE 6 11 3 6 1018.7 - 0.0
03/09:00am 20.1 18.5 8.8 48 6.0 ESE 7 13 4 7 1018.4 1017.1 0.0
03/08:30am 18.9 17.9 10.2 57 4.7 SE 6 9 3 5 1018.1 - 0.0
03/08:00am 18.1 17.1 11.0 63 3.9 E 7 9 4 5 1017.4 - 0.0
03/07:30am 17.2 17.6 11.2 68 3.3 CALM 0 2 0 1 1017.2 - 0.0
03/07:00am 17.3 17.3 11.1 67 3.4 ESE 2 9 1 5 1016.5 - 0.0
03/06:30am 17.7 17.7 11.0 65 3.7 S 2 6 1 3 1016.5 - 0.0
03/06:00am 17.8 17.2 11.6 67 3.4 SSE 6 9 3 5 1016.4 1015.1 0.0
03/05:30am 18.0 18.0 11.1 64 3.8 ESE 2 7 1 4 1016.1 - 0.0
03/05:00am 17.8 17.3 12.0 69 3.3 E 6 9 3 5 1016.1 - 0.0
03/04:30am 17.6 17.9 12.3 71 3.0 SSE 2 7 1 4 1015.9 - 0.0
03/04:00am 17.4 17.5 12.7 74 2.7 SSE 4 7 2 4 1016.1 - 0.0
03/03:30am 17.1 17.0 14.0 82 1.8 S 7 9 4 5 1016.4 - 0.0
03/03:00am 17.1 16.5 13.6 80 2.0 S 9 13 5 7 1016.2 1014.9 0.0
03/02:30am 17.2 16.3 12.5 74 2.7 SSW 9 15 5 8 1016.3 - 0.0
03/02:00am 17.8 15.9 8.9 56 4.7 S 9 13 5 7 1016.3 - 0.0
03/01:30am 17.8 16.3 10.7 63 3.9 S 9 17 5 9 1016.4 - 0.0
03/01:00am 18.1 18.3 10.7 62 4.1 CALM 0 0 0 0 1016.5 - 0.0
03/12:30am 18.2 17.3 11.5 65 3.7 S 7 11 4 6 1016.6 - 0.0
03/12:00am 18.4 17.5 10.5 60 4.3 SSW 6 9 3 5 1016.8 1015.6 0.0
 
Date/Time
CDT
Temp
°C
App
Temp
°C
Dew
Point
Rel
Hum
%
Delta-T
°C
Wind Press
QNH
hPa
Press
MSL
hPa
Rain
since 9 am
mm
Dir
 
Spd
km/h
Gust
km/h
Spd
kts
Gust
kts
02/11:30pm 18.9 18.2 8.6 51 5.5 SSW 2 6 1 3 1017.0 - 0.0
02/11:00pm 19.7 17.0 7.4 45 6.4 S 11 19 6 10 1016.9 - 0.0
02/10:30pm 20.3 17.4 6.6 41 7.0 S 11 17 6 9 1016.7 - 0.0
02/10:00pm 20.3 17.5 7.0 42 6.9 S 11 17 6 9 1017.0 - 0.0
02/09:30pm 20.2 16.9 7.9 45 6.5 S 15 24 8 13 1016.6 - 0.0
02/09:00pm 20.1 18.1 8.8 48 6.0 S 9 17 5 9 1016.4 1015.1 0.0
02/08:30pm 20.4 17.2 8.4 46 6.4 S 15 22 8 12 1016.0 - 0.0
02/08:00pm 21.2 17.9 6.3 38 7.7 S 13 20 7 11 1015.5 - 0.0
02/07:30pm 21.7 17.9 5.6 35 8.2 S 15 26 8 14 1014.8 - 0.0
02/07:00pm 22.4 17.3 4.0 30 9.1 S 20 35 11 19 1014.9 - 0.0
02/06:30pm 23.3 18.1 3.8 28 9.7 SSW 20 35 11 19 1014.7 - 0.0
02/06:00pm 24.7 19.2 1.6 22 11.1 SSW 20 30 11 16 1014.2 1012.9 0.0
02/05:30pm 25.5 19.9 0.9 20 11.8 SW 20 41 11 22 1013.4 - 0.0
02/05:00pm 27.8 23.2 -1.2 15 13.6 SW 13 20 7 11 1013.1 - 0.0
02/04:30pm 28.0 23.0 -1.0 15 13.7 WSW 15 24 8 13 1013.1 - 0.0
02/04:00pm 28.4 23.8 -0.7 15 13.8 SW 13 19 7 10 1013.2 - 0.0
02/03:30pm 28.9 24.7 -1.2 14 14.2 WNW 11 19 6 10 1013.4 - 0.0
02/03:00pm 27.3 23.9 -0.7 16 13.2 S 7 13 4 7 1013.5 1012.2 0.0
02/02:30pm 27.5 23.4 -0.5 16 13.3 N 11 20 6 11 1013.7 - 0.0
02/02:00pm 28.4 25.1 0.2 16 13.6 N 7 17 4 9 1013.8 - 0.0
02/01:30pm 26.4 22.5 0.9 19 12.3 ENE 11 22 6 12 1014.2 - 0.0
02/01:00pm 26.8 22.7 2.0 20 12.2 NE 13 22 7 12 1014.5 - 0.0
02/12:30pm 25.7 22.0 2.4 22 11.5 NNE 11 20 6 11 1014.9 - 0.0
02/12:00pm 24.7 21.6 3.4 25 10.6 ENE 9 19 5 10 1015.4 1014.1 0.0
02/11:30am 24.5 21.2 4.3 27 10.2 NE 11 19 6 10 1015.9 - 0.0
02/11:00am 22.3 18.9 5.7 34 8.5 ENE 13 22 7 12 1016.1 - 0.0
02/10:30am 21.6 18.6 5.9 36 8.0 ENE 11 19 6 10 1016.5 - 0.0
02/10:00am 19.1 16.1 5.9 42 6.6 ENE 11 20 6 11 1016.5 - 0.0
02/09:30am 18.1 15.5 6.3 46 5.9 E 9 20 5 11 1016.5 - 0.0
02/09:00am 16.9 14.4 6.7 51 5.1 E 9 15 5 8 1016.4 1015.1 0.0
02/08:30am 15.6 13.2 6.9 56 4.4 E 9 13 5 7 1016.4 - 0.0
02/08:00am 14.9 12.5 7.0 59 4.0 E 9 15 5 8 1016.5 - 0.0
02/07:30am 14.2 11.8 7.0 62 3.6 ENE 9 13 5 7 1016.2 - 0.0
02/07:00am 14.2 12.4 7.0 62 3.6 ENE 6 9 3 5 1015.9 - 0.0
02/06:30am 14.3 12.3 7.1 62 3.6 E 7 13 4 7 1015.8 - 0.0
02/06:00am 14.2 12.7 7.0 62 3.6 ESE 4 9 2 5 1015.5 1014.2 0.0
02/05:30am 14.3 11.6 7.4 63 3.5 E 11 20 6 11 1014.9 - 0.0
02/05:00am 14.6 11.9 7.4 62 3.6 ESE 11 19 6 10 1014.5 - 0.0
02/04:30am 14.4 12.5 7.5 63 3.5 E 7 13 4 7 1014.8 - 0.0
02/04:00am 14.4 12.2 7.7 64 3.4 ESE 9 17 5 9 1014.8 - 0.0
02/03:30am 14.1 12.3 7.9 66 3.1 ESE 7 11 4 6 1014.9 - 0.0
02/03:00am 14.0 11.8 7.8 66 3.1 E 9 15 5 8 1014.9 1013.7 0.0
02/02:30am 14.2 11.6 7.9 66 3.2 E 11 19 6 10 1015.0 - 0.0
02/02:00am 14.5 12.3 8.0 65 3.3 E 9 17 5 9 1015.7 - 0.0
02/01:30am 14.9 12.4 8.2 64 3.4 ESE 11 19 6 10 1015.8 - 0.0
02/01:00am 15.0 12.6 8.5 65 3.4 ESE 11 19 6 10 1016.2 - 0.0
02/12:30am 15.4 13.3 8.4 63 3.6 E 9 15 5 8 1016.6 - 0.0
02/12:00am 15.9 13.4 8.4 61 3.9 E 11 17 6 9 1016.7 1015.4 0.0
 
Date/Time
CDT
Temp
°C
App
Temp
°C
Dew
Point
Rel
Hum
%
Delta-T
°C
Wind Press
QNH
hPa
Press
MSL
hPa
Rain
since 9 am
mm
Dir
 
Spd
km/h
Gust
km/h
Spd
kts
Gust
kts
01/11:30pm 16.2 13.7 8.4 60 4.0 ESE 11 20 6 11 1016.4 - 0.0
01/11:00pm 16.8 14.3 8.2 57 4.5 E 11 22 6 12 1016.4 - 0.0
01/10:30pm 17.6 15.0 7.9 53 5.0 ESE 11 20 6 11 1016.4 - 0.0
01/10:00pm 18.2 15.9 7.3 49 5.6 SE 9 13 5 7 1016.7 - 0.0
01/09:30pm 18.9 16.9 7.0 46 6.1 E 7 15 4 8 1016.6 - 0.0
01/09:00pm 17.7 16.7 7.2 50 5.4 S 2 7 1 4 1016.4 1015.1 0.0
01/08:30pm 18.3 16.3 8.8 54 5.0 SSW 9 15 5 8 1015.8 - 0.0
01/08:00pm 19.4 17.5 9.0 51 5.6 SSE 9 15 5 8 1015.5 - 0.0
01/07:30pm 20.6 18.4 9.2 48 6.2 SSW 11 20 6 11 1015.3 - 0.0
01/07:00pm 22.2 18.8 9.0 43 7.2 S 17 26 9 14 1015.1 - 0.0
01/06:30pm 23.3 20.4 8.2 38 8.1 S 13 22 7 12 1015.1 - 0.0
01/06:00pm 24.2 20.8 4.0 27 10.1 ESE 11 20 6 11 1014.8 1013.6 0.0
01/05:30pm 24.7 21.7 3.9 26 10.5 SSE 9 24 5 13 1014.5 - 0.0
01/05:00pm 25.5 21.0 4.0 25 10.9 S 17 28 9 15 1014.8 - 0.0
01/04:30pm 25.1 21.1 3.1 24 10.9 S 13 26 7 14 1014.9 - 0.0
01/04:00pm 24.3 20.3 3.0 25 10.5 SSE 13 24 7 13 1015.1 - 0.0
01/03:30pm 24.0 19.4 3.9 27 10.1 SSE 17 37 9 20 1015.5 - 0.0
01/03:00pm 24.3 20.1 3.6 26 10.3 SSE 15 26 8 14 1015.6 1014.3 0.0
01/02:30pm 23.8 20.1 4.2 28 9.9 SSE 13 22 7 12 1015.9 - 0.0
01/02:00pm 23.2 19.8 4.2 29 9.5 SSE 11 22 6 12 1016.0 - 0.0
01/01:30pm 22.1 18.1 5.1 33 8.6 SSE 15 24 8 13 1016.2 - 0.0
01/01:00pm 21.4 17.3 4.5 33 8.4 SSE 15 28 8 15 1016.5 - 0.0
01/12:30pm 20.0 15.8 3.7 34 7.9 SE 15 24 8 13 1017.1 - 0.0
01/12:00pm 19.7 16.1 5.0 38 7.3 SSE 13 26 7 14 1017.4 1016.2 0.0
01/11:30am 19.3 16.0 6.4 43 6.6 SSE 13 24 7 13 1017.5 - 0.0
01/11:00am 17.7 15.0 7.2 50 5.4 SSE 11 24 6 13 1017.4 - 0.0
01/10:30am 16.9 13.3 6.7 51 5.1 SSE 15 30 8 16 1017.3 - 0.0
01/10:00am 16.4 12.8 6.8 53 4.8 SE 15 24 8 13 1017.2 - 0.0
01/09:30am 16.3 12.6 6.4 52 4.9 S 15 30 8 16 1016.8 - 0.0
01/09:00am 15.6 11.0 6.3 54 4.6 SSE 20 32 11 17 1016.5 1015.2 0.0
01/08:30am 15.0 11.3 6.3 56 4.3 SSE 15 28 8 15 1016.1 - 0.0
01/08:00am 14.0 10.3 6.4 60 3.7 SSE 15 28 8 15 1016.0 - 0.0
01/07:30am 13.4 10.7 7.4 67 3.0 S 11 17 6 9 1015.6 - 0.0
01/07:00am 13.2 10.3 8.1 71 2.6 S 13 26 7 14 1014.9 - 0.0
01/06:30am 13.3 10.6 9.0 75 2.2 S 13 20 7 11 1014.3 - 0.0
01/06:00am 13.5 10.9 9.2 75 2.2 S 13 20 7 11 1014.1 1012.8 0.0
01/05:30am 14.1 10.9 10.1 77 2.1 S 17 28 9 15 1013.9 - 0.0
01/05:00am 14.1 11.5 10.7 80 1.8 S 15 24 8 13 1013.5 - 0.0
01/04:30am 13.9 11.7 10.7 81 1.7 S 13 22 7 12 1013.2 - 0.0
01/04:00am 14.2 11.9 10.6 79 1.9 S 13 22 7 12 1013.0 - 0.0
01/03:30am 14.6 12.5 11.0 79 1.9 S 13 20 7 11 1012.8 - 0.0
01/03:00am 14.7 12.4 11.7 82 1.6 S 15 24 8 13 1012.7 1011.4 0.0
01/02:30am 14.7 12.0 11.8 83 1.6 S 17 32 9 17 1012.3 - 0.0
01/02:00am 14.9 12.6 11.9 82 1.7 S 15 24 8 13 1012.3 - 0.0
01/01:30am 14.8 12.0 11.4 80 1.9 S 17 32 9 17 1012.3 - 0.0
01/01:00am 15.1 12.3 11.5 79 2.0 S 17 28 9 15 1012.4 - 0.0
01/12:30am 15.1 12.0 11.7 80 1.9 S 19 30 10 16 1012.4 - 0.0
01/12:00am 15.6 13.1 12.2 80 1.9 S 17 32 9 17 1012.6 1011.3 0.0
 
Date/Time
CDT
Temp
°C
App
Temp
°C
Dew
Point
Rel
Hum
%
Delta-T
°C
Wind Press
QNH
hPa
Press
MSL
hPa
Rain
since 9 am
mm
Dir
 
Spd
km/h
Gust
km/h
Spd
kts
Gust
kts
28/11:30pm 15.8 13.3 12.4 80 1.9 S 17 28 9 15 1012.4 - 0.0
28/11:00pm 16.0 13.6 12.7 81 1.9 S 17 33 9 18 1012.4 - 0.0
28/10:30pm 16.5 13.6 12.3 76 2.4 S 19 32 10 17 1012.2 - 0.0
28/10:00pm 17.5 15.4 14.6 83 1.7 S 19 30 10 16 1012.1 - 0.0
28/09:30pm 17.8 16.3 15.2 85 1.5 S 17 32 9 17 1011.7 - 0.0
28/09:00pm 18.0 16.1 15.1 83 1.7 S 19 32 10 17 1011.0 1009.3 0.0
28/08:30pm 18.9 17.1 14.4 75 2.6 SSW 17 35 9 19 1010.6 - 0.0
28/08:00pm 20.1 19.7 15.1 73 3.0 SSW 11 26 6 14 1009.6 - 0.0
28/07:30pm 20.9 19.1 14.5 67 3.8 S 17 33 9 18 1008.9 - 0.0
28/07:00pm 23.4 21.5 14.1 56 5.6 SSW 17 30 9 16 1008.6 - 0.0
28/06:30pm 25.0 21.9 14.5 52 6.4 SSW 24 37 13 20 1007.8 - 0.0
28/06:00pm 26.0 23.2 13.2 45 7.6 SSW 20 37 11 20 1007.4 1005.6 0.0

Other Formats:

Comma delimited format used in spreadsheet applications
http://www.bom.gov.au/fwo/IDS60801/IDS60801.95667.axf

JavaScript Object Notation format (JSON) in row-major order
http://www.bom.gov.au/fwo/IDS60801/IDS60801.95667.json